sensor_id;sensor_type;location;lat;lon;timestamp;P1;durP1;ratioP1;P2;durP2;ratioP2
47625;SDS011;33342;45.574;9.252;2022-07-22T00:02:01;10.07;;;7.07;;
47625;SDS011;33342;45.574;9.252;2022-07-22T00:04:28;13.75;;;7.00;;
47625;SDS011;33342;45.574;9.252;2022-07-22T00:06:55;10.18;;;7.05;;
47625;SDS011;33342;45.574;9.252;2022-07-22T00:09:22;9.40;;;6.43;;
47625;SDS011;33342;45.574;9.252;2022-07-22T00:11:50;11.40;;;7.38;;
47625;SDS011;33342;45.574;9.252;2022-07-22T00:14:17;11.23;;;6.43;;
47625;SDS011;33342;45.574;9.252;2022-07-22T00:16:44;10.13;;;6.63;;
47625;SDS011;33342;45.574;9.252;2022-07-22T00:19:11;10.52;;;6.20;;
47625;SDS011;33342;45.574;9.252;2022-07-22T00:21:38;12.23;;;6.70;;
47625;SDS011;33342;45.574;9.252;2022-07-22T00:24:05;10.10;;;6.10;;
47625;SDS011;33342;45.574;9.252;2022-07-22T00:26:34;11.38;;;6.95;;
47625;SDS011;33342;45.574;9.252;2022-07-22T00:29:01;11.38;;;6.60;;
47625;SDS011;33342;45.574;9.252;2022-07-22T00:31:28;8.80;;;6.60;;
47625;SDS011;33342;45.574;9.252;2022-07-22T00:33:58;13.75;;;6.88;;
47625;SDS011;33342;45.574;9.252;2022-07-22T00:36:30;13.30;;;7.60;;
47625;SDS011;33342;45.574;9.252;2022-07-22T00:38:58;12.15;;;6.85;;
47625;SDS011;33342;45.574;9.252;2022-07-22T00:41:26;10.63;;;6.85;;
47625;SDS011;33342;45.574;9.252;2022-07-22T00:44:00;11.60;;;7.40;;
47625;SDS011;33342;45.574;9.252;2022-07-22T00:46:29;11.77;;;7.43;;
47625;SDS011;33342;45.574;9.252;2022-07-22T00:49:00;12.57;;;7.50;;
47625;SDS011;33342;45.574;9.252;2022-07-22T00:51:29;11.32;;;7.28;;
47625;SDS011;33342;45.574;9.252;2022-07-22T00:53:57;11.13;;;7.43;;
47625;SDS011;33342;45.574;9.252;2022-07-22T00:56:25;8.95;;;6.60;;
47625;SDS011;33342;45.574;9.252;2022-07-22T00:58:54;11.35;;;7.22;;
47625;SDS011;33342;45.574;9.252;2022-07-22T01:01:23;9.75;;;6.80;;
47625;SDS011;33342;45.574;9.252;2022-07-22T01:03:51;12.07;;;6.82;;
47625;SDS011;33342;45.574;9.252;2022-07-22T01:06:27;10.00;;;7.35;;
47625;SDS011;33342;45.574;9.252;2022-07-22T01:08:55;11.07;;;7.50;;
47625;SDS011;33342;45.574;9.252;2022-07-22T01:11:23;9.73;;;7.20;;
47625;SDS011;33342;45.574;9.252;2022-07-22T01:13:51;11.57;;;7.65;;
47625;SDS011;33342;45.574;9.252;2022-07-22T01:16:19;10.00;;;7.20;;
47625;SDS011;33342;45.574;9.252;2022-07-22T01:18:47;9.15;;;6.85;;
47625;SDS011;33342;45.574;9.252;2022-07-22T01:21:17;11.52;;;7.22;;
47625;SDS011;33342;45.574;9.252;2022-07-22T01:23:44;10.25;;;7.15;;
47625;SDS011;33342;45.574;9.252;2022-07-22T01:26:12;9.50;;;6.53;;
47625;SDS011;33342;45.574;9.252;2022-07-22T01:28:39;8.88;;;7.07;;
47625;SDS011;33342;45.574;9.252;2022-07-22T01:31:07;10.23;;;6.82;;
47625;SDS011;33342;45.574;9.252;2022-07-22T01:33:34;10.85;;;7.70;;
47625;SDS011;33342;45.574;9.252;2022-07-22T01:36:03;12.95;;;7.60;;
47625;SDS011;33342;45.574;9.252;2022-07-22T01:38:31;11.05;;;6.80;;
47625;SDS011;33342;45.574;9.252;2022-07-22T01:40:59;9.13;;;7.10;;
47625;SDS011;33342;45.574;9.252;2022-07-22T01:43:27;10.45;;;6.90;;
47625;SDS011;33342;45.574;9.252;2022-07-22T01:45:54;9.77;;;7.25;;
47625;SDS011;33342;45.574;9.252;2022-07-22T01:48:22;10.38;;;7.32;;
47625;SDS011;33342;45.574;9.252;2022-07-22T01:50:50;10.57;;;7.20;;
47625;SDS011;33342;45.574;9.252;2022-07-22T01:53:18;10.02;;;7.78;;
47625;SDS011;33342;45.574;9.252;2022-07-22T01:55:46;13.68;;;7.38;;
47625;SDS011;33342;45.574;9.252;2022-07-22T01:58:17;13.68;;;7.65;;
47625;SDS011;33342;45.574;9.252;2022-07-22T02:00:46;10.57;;;7.60;;
47625;SDS011;33342;45.574;9.252;2022-07-22T02:03:14;12.50;;;7.85;;
47625;SDS011;33342;45.574;9.252;2022-07-22T02:05:41;13.05;;;8.10;;
47625;SDS011;33342;45.574;9.252;2022-07-22T02:08:18;11.38;;;7.60;;
47625;SDS011;33342;45.574;9.252;2022-07-22T02:11:03;11.45;;;7.70;;
47625;SDS011;33342;45.574;9.252;2022-07-22T02:13:31;12.18;;;7.97;;
47625;SDS011;33342;45.574;9.252;2022-07-22T02:15:58;11.45;;;7.85;;
47625;SDS011;33342;45.574;9.252;2022-07-22T02:18:25;14.70;;;8.65;;
47625;SDS011;33342;45.574;9.252;2022-07-22T02:20:55;12.23;;;7.85;;
47625;SDS011;33342;45.574;9.252;2022-07-22T02:23:24;13.88;;;8.25;;
47625;SDS011;33342;45.574;9.252;2022-07-22T02:25:52;13.30;;;8.30;;
47625;SDS011;33342;45.574;9.252;2022-07-22T02:28:19;14.48;;;8.40;;
47625;SDS011;33342;45.574;9.252;2022-07-22T02:30:47;11.55;;;7.63;;
47625;SDS011;33342;45.574;9.252;2022-07-22T02:33:16;13.82;;;8.27;;
47625;SDS011;33342;45.574;9.252;2022-07-22T02:35:43;13.15;;;8.43;;
47625;SDS011;33342;45.574;9.252;2022-07-22T02:38:10;12.70;;;7.68;;
47625;SDS011;33342;45.574;9.252;2022-07-22T02:40:38;10.88;;;8.23;;
47625;SDS011;33342;45.574;9.252;2022-07-22T02:43:05;11.35;;;7.72;;
47625;SDS011;33342;45.574;9.252;2022-07-22T02:45:33;9.65;;;7.88;;
47625;SDS011;33342;45.574;9.252;2022-07-22T02:48:01;10.63;;;8.02;;
47625;SDS011;33342;45.574;9.252;2022-07-22T02:50:31;18.17;;;7.72;;
47625;SDS011;33342;45.574;9.252;2022-07-22T02:53:02;10.50;;;7.60;;
47625;SDS011;33342;45.574;9.252;2022-07-22T02:55:34;11.48;;;8.25;;
47625;SDS011;33342;45.574;9.252;2022-07-22T02:58:04;12.85;;;8.50;;
47625;SDS011;33342;45.574;9.252;2022-07-22T03:00:32;12.10;;;8.07;;
47625;SDS011;33342;45.574;9.252;2022-07-22T03:03:00;11.40;;;8.25;;
47625;SDS011;33342;45.574;9.252;2022-07-22T03:05:29;10.50;;;7.55;;
47625;SDS011;33342;45.574;9.252;2022-07-22T03:08:13;13.18;;;8.10;;
47625;SDS011;33342;45.574;9.252;2022-07-22T03:10:40;13.20;;;7.95;;
47625;SDS011;33342;45.574;9.252;2022-07-22T03:13:07;12.00;;;7.55;;
47625;SDS011;33342;45.574;9.252;2022-07-22T03:15:34;11.35;;;8.48;;
47625;SDS011;33342;45.574;9.252;2022-07-22T03:18:01;10.55;;;8.63;;
47625;SDS011;33342;45.574;9.252;2022-07-22T03:20:29;15.98;;;9.40;;
47625;SDS011;33342;45.574;9.252;2022-07-22T03:22:56;13.95;;;10.18;;
47625;SDS011;33342;45.574;9.252;2022-07-22T03:25:23;14.50;;;10.75;;
47625;SDS011;33342;45.574;9.252;2022-07-22T03:27:50;17.63;;;10.98;;
47625;SDS011;33342;45.574;9.252;2022-07-22T03:30:17;13.48;;;10.30;;
47625;SDS011;33342;45.574;9.252;2022-07-22T03:32:44;16.10;;;10.40;;
47625;SDS011;33342;45.574;9.252;2022-07-22T03:35:17;15.20;;;10.23;;
47625;SDS011;33342;45.574;9.252;2022-07-22T03:37:45;15.57;;;10.38;;
47625;SDS011;33342;45.574;9.252;2022-07-22T03:40:13;15.43;;;9.80;;
47625;SDS011;33342;45.574;9.252;2022-07-22T03:42:42;16.42;;;9.32;;
47625;SDS011;33342;45.574;9.252;2022-07-22T03:45:13;12.05;;;9.13;;
47625;SDS011;33342;45.574;9.252;2022-07-22T03:47:40;16.95;;;9.48;;
47625;SDS011;33342;45.574;9.252;2022-07-22T03:50:08;14.35;;;9.50;;
47625;SDS011;33342;45.574;9.252;2022-07-22T03:52:35;14.20;;;10.23;;
47625;SDS011;33342;45.574;9.252;2022-07-22T03:55:06;14.23;;;10.45;;
47625;SDS011;33342;45.574;9.252;2022-07-22T03:57:34;20.20;;;11.73;;
47625;SDS011;33342;45.574;9.252;2022-07-22T04:00:15;13.77;;;9.68;;
47625;SDS011;33342;45.574;9.252;2022-07-22T04:02:44;21.38;;;11.07;;
47625;SDS011;33342;45.574;9.252;2022-07-22T04:05:47;17.95;;;11.13;;
47625;SDS011;33342;45.574;9.252;2022-07-22T04:08:21;18.63;;;11.20;;
47625;SDS011;33342;45.574;9.252;2022-07-22T04:10:48;18.75;;;11.05;;
47625;SDS011;33342;45.574;9.252;2022-07-22T04:13:15;16.40;;;10.40;;
47625;SDS011;33342;45.574;9.252;2022-07-22T04:15:48;16.65;;;10.80;;
47625;SDS011;33342;45.574;9.252;2022-07-22T04:18:15;15.90;;;11.30;;
47625;SDS011;33342;45.574;9.252;2022-07-22T04:20:45;21.05;;;10.93;;
47625;SDS011;33342;45.574;9.252;2022-07-22T04:23:19;18.10;;;10.63;;
47625;SDS011;33342;45.574;9.252;2022-07-22T04:25:50;16.05;;;11.00;;
47625;SDS011;33342;45.574;9.252;2022-07-22T04:28:17;15.18;;;10.65;;
47625;SDS011;33342;45.574;9.252;2022-07-22T04:30:44;21.40;;;11.27;;
47625;SDS011;33342;45.574;9.252;2022-07-22T04:33:12;16.50;;;10.93;;
47625;SDS011;33342;45.574;9.252;2022-07-22T04:35:39;16.15;;;10.55;;
47625;SDS011;33342;45.574;9.252;2022-07-22T04:38:16;15.43;;;10.95;;
47625;SDS011;33342;45.574;9.252;2022-07-22T04:41:04;18.65;;;11.30;;
47625;SDS011;33342;45.574;9.252;2022-07-22T04:43:31;18.38;;;11.48;;
47625;SDS011;33342;45.574;9.252;2022-07-22T04:46:00;15.60;;;10.27;;
47625;SDS011;33342;45.574;9.252;2022-07-22T04:48:32;15.75;;;10.40;;
47625;SDS011;33342;45.574;9.252;2022-07-22T04:51:00;19.13;;;11.27;;
47625;SDS011;33342;45.574;9.252;2022-07-22T04:53:30;15.40;;;11.57;;
47625;SDS011;33342;45.574;9.252;2022-07-22T04:56:17;23.08;;;11.00;;
47625;SDS011;33342;45.574;9.252;2022-07-22T04:58:44;19.15;;;9.90;;
47625;SDS011;33342;45.574;9.252;2022-07-22T05:01:11;15.18;;;10.75;;
47625;SDS011;33342;45.574;9.252;2022-07-22T05:03:41;15.95;;;10.45;;
47625;SDS011;33342;45.574;9.252;2022-07-22T05:06:10;13.52;;;10.27;;
47625;SDS011;33342;45.574;9.252;2022-07-22T05:08:40;17.70;;;10.38;;
47625;SDS011;33342;45.574;9.252;2022-07-22T05:11:07;15.18;;;9.95;;
47625;SDS011;33342;45.574;9.252;2022-07-22T05:13:35;18.85;;;10.35;;
47625;SDS011;33342;45.574;9.252;2022-07-22T05:16:03;14.02;;;9.57;;
47625;SDS011;33342;45.574;9.252;2022-07-22T05:18:33;16.17;;;9.95;;
47625;SDS011;33342;45.574;9.252;2022-07-22T05:21:01;14.63;;;10.30;;
47625;SDS011;33342;45.574;9.252;2022-07-22T05:23:30;15.98;;;10.07;;
47625;SDS011;33342;45.574;9.252;2022-07-22T05:25:57;15.65;;;10.02;;
47625;SDS011;33342;45.574;9.252;2022-07-22T05:28:24;16.40;;;9.65;;
47625;SDS011;33342;45.574;9.252;2022-07-22T05:30:51;15.50;;;9.43;;
47625;SDS011;33342;45.574;9.252;2022-07-22T05:33:20;17.30;;;10.02;;
47625;SDS011;33342;45.574;9.252;2022-07-22T05:36:07;17.80;;;9.85;;
47625;SDS011;33342;45.574;9.252;2022-07-22T05:38:40;12.90;;;8.80;;
47625;SDS011;33342;45.574;9.252;2022-07-22T05:41:08;15.63;;;9.88;;
47625;SDS011;33342;45.574;9.252;2022-07-22T05:43:37;11.57;;;9.40;;
47625;SDS011;33342;45.574;9.252;2022-07-22T05:46:05;15.15;;;10.25;;
47625;SDS011;33342;45.574;9.252;2022-07-22T05:48:34;15.45;;;9.95;;
47625;SDS011;33342;45.574;9.252;2022-07-22T05:51:02;15.93;;;9.50;;
47625;SDS011;33342;45.574;9.252;2022-07-22T05:53:31;19.88;;;11.48;;
47625;SDS011;33342;45.574;9.252;2022-07-22T05:55:58;21.38;;;10.95;;
47625;SDS011;33342;45.574;9.252;2022-07-22T05:58:33;18.27;;;9.50;;
47625;SDS011;33342;45.574;9.252;2022-07-22T06:01:01;15.02;;;10.10;;
47625;SDS011;33342;45.574;9.252;2022-07-22T06:03:29;16.08;;;10.20;;
47625;SDS011;33342;45.574;9.252;2022-07-22T06:05:57;16.05;;;10.30;;
47625;SDS011;33342;45.574;9.252;2022-07-22T06:08:27;13.43;;;9.02;;
47625;SDS011;33342;45.574;9.252;2022-07-22T06:10:56;15.75;;;9.77;;
47625;SDS011;33342;45.574;9.252;2022-07-22T06:13:24;16.65;;;9.60;;
47625;SDS011;33342;45.574;9.252;2022-07-22T06:15:51;15.63;;;10.05;;
47625;SDS011;33342;45.574;9.252;2022-07-22T06:18:19;16.30;;;9.77;;
47625;SDS011;33342;45.574;9.252;2022-07-22T06:20:46;15.45;;;9.23;;
47625;SDS011;33342;45.574;9.252;2022-07-22T06:23:13;11.38;;;8.80;;
47625;SDS011;33342;45.574;9.252;2022-07-22T06:25:41;14.10;;;9.10;;
47625;SDS011;33342;45.574;9.252;2022-07-22T06:28:32;14.50;;;7.65;;
47625;SDS011;33342;45.574;9.252;2022-07-22T06:31:00;12.80;;;7.85;;
47625;SDS011;33342;45.574;9.252;2022-07-22T06:33:27;13.52;;;7.70;;
47625;SDS011;33342;45.574;9.252;2022-07-22T06:35:56;14.63;;;7.00;;
47625;SDS011;33342;45.574;9.252;2022-07-22T06:38:26;12.68;;;7.05;;
47625;SDS011;33342;45.574;9.252;2022-07-22T06:41:20;13.88;;;6.72;;
47625;SDS011;33342;45.574;9.252;2022-07-22T06:44:13;10.52;;;6.50;;
47625;SDS011;33342;45.574;9.252;2022-07-22T06:46:46;12.65;;;6.53;;
47625;SDS011;33342;45.574;9.252;2022-07-22T06:49:16;11.75;;;6.72;;
47625;SDS011;33342;45.574;9.252;2022-07-22T06:51:44;10.45;;;6.97;;
47625;SDS011;33342;45.574;9.252;2022-07-22T06:54:11;12.43;;;6.95;;
47625;SDS011;33342;45.574;9.252;2022-07-22T06:56:38;10.57;;;6.22;;
47625;SDS011;33342;45.574;9.252;2022-07-22T06:59:14;14.15;;;7.10;;
47625;SDS011;33342;45.574;9.252;2022-07-22T07:01:42;11.80;;;6.30;;
47625;SDS011;33342;45.574;9.252;2022-07-22T07:04:12;13.77;;;6.65;;
47625;SDS011;33342;45.574;9.252;2022-07-22T07:06:40;14.02;;;7.00;;
47625;SDS011;33342;45.574;9.252;2022-07-22T07:09:15;10.95;;;7.13;;
47625;SDS011;33342;45.574;9.252;2022-07-22T07:11:54;13.07;;;6.85;;
47625;SDS011;33342;45.574;9.252;2022-07-22T07:14:50;12.48;;;6.90;;
47625;SDS011;33342;45.574;9.252;2022-07-22T07:17:38;14.30;;;6.70;;
47625;SDS011;33342;45.574;9.252;2022-07-22T07:20:07;10.73;;;6.47;;
47625;SDS011;33342;45.574;9.252;2022-07-22T07:22:34;9.43;;;5.90;;
47625;SDS011;33342;45.574;9.252;2022-07-22T07:25:03;12.52;;;6.53;;
47625;SDS011;33342;45.574;9.252;2022-07-22T07:27:49;12.05;;;6.60;;
47625;SDS011;33342;45.574;9.252;2022-07-22T07:30:22;12.15;;;6.57;;
47625;SDS011;33342;45.574;9.252;2022-07-22T07:32:50;14.93;;;6.65;;
47625;SDS011;33342;45.574;9.252;2022-07-22T07:35:17;17.98;;;7.25;;
47625;SDS011;33342;45.574;9.252;2022-07-22T07:37:47;16.65;;;6.72;;
47625;SDS011;33342;45.574;9.252;2022-07-22T07:40:14;11.70;;;6.65;;
47625;SDS011;33342;45.574;9.252;2022-07-22T07:42:42;13.18;;;6.28;;
47625;SDS011;33342;45.574;9.252;2022-07-22T07:45:19;12.82;;;6.65;;
47625;SDS011;33342;45.574;9.252;2022-07-22T07:47:47;11.27;;;7.05;;
47625;SDS011;33342;45.574;9.252;2022-07-22T07:50:15;12.15;;;5.65;;
47625;SDS011;33342;45.574;9.252;2022-07-22T07:52:43;9.85;;;5.95;;
47625;SDS011;33342;45.574;9.252;2022-07-22T07:55:19;11.57;;;6.55;;
47625;SDS011;33342;45.574;9.252;2022-07-22T07:57:47;12.25;;;6.15;;
47625;SDS011;33342;45.574;9.252;2022-07-22T08:00:20;17.48;;;6.43;;
47625;SDS011;33342;45.574;9.252;2022-07-22T08:02:50;10.25;;;6.28;;
47625;SDS011;33342;45.574;9.252;2022-07-22T08:05:19;11.18;;;6.50;;
47625;SDS011;33342;45.574;9.252;2022-07-22T08:07:49;13.80;;;7.07;;
47625;SDS011;33342;45.574;9.252;2022-07-22T08:10:17;11.00;;;6.55;;
47625;SDS011;33342;45.574;9.252;2022-07-22T08:13:24;14.10;;;6.50;;
47625;SDS011;33342;45.574;9.252;2022-07-22T08:16:11;10.00;;;6.68;;
47625;SDS011;33342;45.574;9.252;2022-07-22T08:18:39;10.88;;;6.22;;
47625;SDS011;33342;45.574;9.252;2022-07-22T08:21:07;10.73;;;6.10;;
47625;SDS011;33342;45.574;9.252;2022-07-22T08:23:53;10.63;;;6.55;;
47625;SDS011;33342;45.574;9.252;2022-07-22T08:26:24;9.50;;;5.85;;
47625;SDS011;33342;45.574;9.252;2022-07-22T08:28:57;9.98;;;5.60;;
47625;SDS011;33342;45.574;9.252;2022-07-22T08:31:27;11.18;;;5.88;;
47625;SDS011;33342;45.574;9.252;2022-07-22T08:33:57;14.75;;;6.07;;
47625;SDS011;33342;45.574;9.252;2022-07-22T08:36:27;11.45;;;5.55;;
47625;SDS011;33342;45.574;9.252;2022-07-22T08:38:55;10.48;;;6.03;;
47625;SDS011;33342;45.574;9.252;2022-07-22T08:41:25;9.15;;;5.72;;
47625;SDS011;33342;45.574;9.252;2022-07-22T08:43:52;11.88;;;6.32;;
47625;SDS011;33342;45.574;9.252;2022-07-22T08:46:20;10.85;;;6.63;;
47625;SDS011;33342;45.574;9.252;2022-07-22T08:49:06;9.80;;;5.22;;
47625;SDS011;33342;45.574;9.252;2022-07-22T08:51:43;11.18;;;5.00;;
47625;SDS011;33342;45.574;9.252;2022-07-22T08:54:22;9.63;;;4.95;;
47625;SDS011;33342;45.574;9.252;2022-07-22T08:56:51;8.05;;;5.20;;
47625;SDS011;33342;45.574;9.252;2022-07-22T08:59:20;9.45;;;5.35;;
47625;SDS011;33342;45.574;9.252;2022-07-22T09:05:00;9.65;;;5.10;;
47625;SDS011;33342;45.574;9.252;2022-07-22T09:07:51;9.85;;;4.90;;
47625;SDS011;33342;45.574;9.252;2022-07-22T09:10:32;9.00;;;4.45;;
47625;SDS011;33342;45.574;9.252;2022-07-22T09:13:07;9.75;;;4.70;;
47625;SDS011;33342;45.574;9.252;2022-07-22T09:15:52;9.13;;;4.70;;
47625;SDS011;33342;45.574;9.252;2022-07-22T09:18:57;9.63;;;5.13;;
47625;SDS011;33342;45.574;9.252;2022-07-22T09:21:43;9.45;;;4.90;;
47625;SDS011;33342;45.574;9.252;2022-07-22T09:24:25;12.13;;;5.72;;
47625;SDS011;33342;45.574;9.252;2022-07-22T09:27:32;10.00;;;5.45;;
47625;SDS011;33342;45.574;9.252;2022-07-22T09:30:27;10.93;;;5.00;;
47625;SDS011;33342;45.574;9.252;2022-07-22T09:33:06;7.03;;;4.55;;
47625;SDS011;33342;45.574;9.252;2022-07-22T09:35:38;10.25;;;5.13;;
47625;SDS011;33342;45.574;9.252;2022-07-22T09:38:15;9.55;;;4.72;;
47625;SDS011;33342;45.574;9.252;2022-07-22T09:40:45;8.48;;;5.07;;
47625;SDS011;33342;45.574;9.252;2022-07-22T09:43:18;9.18;;;6.43;;
47625;SDS011;33342;45.574;9.252;2022-07-22T09:48:16;11.45;;;4.40;;
47625;SDS011;33342;45.574;9.252;2022-07-22T09:50:54;9.25;;;4.68;;
47625;SDS011;33342;45.574;9.252;2022-07-22T09:53:43;7.07;;;4.72;;
47625;SDS011;33342;45.574;9.252;2022-07-22T09:56:15;10.85;;;4.30;;
47625;SDS011;33342;45.574;9.252;2022-07-22T09:58:44;13.80;;;4.82;;
47625;SDS011;33342;45.574;9.252;2022-07-22T10:01:50;10.97;;;4.23;;
47625;SDS011;33342;45.574;9.252;2022-07-22T10:04:25;10.75;;;4.22;;
47625;SDS011;33342;45.574;9.252;2022-07-22T10:06:58;8.98;;;4.35;;
47625;SDS011;33342;45.574;9.252;2022-07-22T10:09:33;7.90;;;3.97;;
47625;SDS011;33342;45.574;9.252;2022-07-22T10:12:02;9.38;;;4.65;;
47625;SDS011;33342;45.574;9.252;2022-07-22T10:14:33;8.27;;;4.07;;
47625;SDS011;33342;45.574;9.252;2022-07-22T10:17:02;9.25;;;3.83;;
47625;SDS011;33342;45.574;9.252;2022-07-22T10:19:33;7.40;;;4.30;;
47625;SDS011;33342;45.574;9.252;2022-07-22T10:22:01;8.00;;;4.28;;
47625;SDS011;33342;45.574;9.252;2022-07-22T10:24:29;6.60;;;4.18;;
47625;SDS011;33342;45.574;9.252;2022-07-22T10:26:58;9.68;;;4.35;;
47625;SDS011;33342;45.574;9.252;2022-07-22T10:29:29;7.90;;;3.58;;
47625;SDS011;33342;45.574;9.252;2022-07-22T10:34:45;9.00;;;4.15;;
47625;SDS011;33342;45.574;9.252;2022-07-22T10:45:27;8.50;;;4.30;;
47625;SDS011;33342;45.574;9.252;2022-07-22T10:48:12;8.32;;;4.15;;
47625;SDS011;33342;45.574;9.252;2022-07-22T10:50:41;13.05;;;4.32;;
47625;SDS011;33342;45.574;9.252;2022-07-22T10:53:15;6.95;;;4.07;;
47625;SDS011;33342;45.574;9.252;2022-07-22T11:00:59;7.30;;;4.38;;
47625;SDS011;33342;45.574;9.252;2022-07-22T11:03:31;8.40;;;4.03;;
47625;SDS011;33342;45.574;9.252;2022-07-22T11:08:58;8.40;;;4.60;;
47625;SDS011;33342;45.574;9.252;2022-07-22T11:11:37;11.15;;;4.40;;
47625;SDS011;33342;45.574;9.252;2022-07-22T11:14:35;12.02;;;4.30;;
47625;SDS011;33342;45.574;9.252;2022-07-22T11:17:07;10.60;;;4.38;;
47625;SDS011;33342;45.574;9.252;2022-07-22T11:19:37;9.50;;;4.40;;
47625;SDS011;33342;45.574;9.252;2022-07-22T11:22:13;6.57;;;4.07;;
47625;SDS011;33342;45.574;9.252;2022-07-22T11:24:43;7.25;;;3.88;;
47625;SDS011;33342;45.574;9.252;2022-07-22T11:27:16;13.82;;;5.07;;
47625;SDS011;33342;45.574;9.252;2022-07-22T11:29:48;11.98;;;4.43;;
47625;SDS011;33342;45.574;9.252;2022-07-22T11:32:17;7.90;;;4.53;;
47625;SDS011;33342;45.574;9.252;2022-07-22T11:34:55;8.30;;;4.72;;
47625;SDS011;33342;45.574;9.252;2022-07-22T11:37:23;10.15;;;4.50;;
47625;SDS011;33342;45.574;9.252;2022-07-22T11:39:51;8.65;;;3.90;;
47625;SDS011;33342;45.574;9.252;2022-07-22T11:42:25;13.83;;;4.60;;
47625;SDS011;33342;45.574;9.252;2022-07-22T11:44:53;8.18;;;4.60;;
47625;SDS011;33342;45.574;9.252;2022-07-22T11:47:20;8.27;;;4.60;;
47625;SDS011;33342;45.574;9.252;2022-07-22T11:49:47;9.57;;;4.57;;
47625;SDS011;33342;45.574;9.252;2022-07-22T11:52:14;9.73;;;4.60;;
47625;SDS011;33342;45.574;9.252;2022-07-22T11:54:45;7.35;;;3.90;;
47625;SDS011;33342;45.574;9.252;2022-07-22T11:57:13;7.32;;;4.38;;
47625;SDS011;33342;45.574;9.252;2022-07-22T11:59:41;7.30;;;4.30;;
47625;SDS011;33342;45.574;9.252;2022-07-22T12:02:08;6.50;;;4.30;;
47625;SDS011;33342;45.574;9.252;2022-07-22T12:04:40;6.57;;;3.80;;
47625;SDS011;33342;45.574;9.252;2022-07-22T12:07:11;10.07;;;4.47;;
47625;SDS011;33342;45.574;9.252;2022-07-22T12:09:39;6.65;;;4.03;;
47625;SDS011;33342;45.574;9.252;2022-07-22T12:12:09;10.00;;;4.20;;
47625;SDS011;33342;45.574;9.252;2022-07-22T12:14:43;7.90;;;4.53;;
47625;SDS011;33342;45.574;9.252;2022-07-22T12:17:14;8.52;;;4.18;;
47625;SDS011;33342;45.574;9.252;2022-07-22T12:19:42;11.85;;;6.82;;
47625;SDS011;33342;45.574;9.252;2022-07-22T12:22:10;8.15;;;5.00;;
47625;SDS011;33342;45.574;9.252;2022-07-22T12:24:43;12.13;;;4.78;;
47625;SDS011;33342;45.574;9.252;2022-07-22T12:27:12;9.50;;;4.68;;
47625;SDS011;33342;45.574;9.252;2022-07-22T12:32:10;7.65;;;4.72;;
47625;SDS011;33342;45.574;9.252;2022-07-22T12:34:45;8.38;;;4.65;;
47625;SDS011;33342;45.574;9.252;2022-07-22T12:42:31;9.00;;;4.72;;
47625;SDS011;33342;45.574;9.252;2022-07-22T12:45:01;10.02;;;5.35;;
47625;SDS011;33342;45.574;9.252;2022-07-22T12:50:23;7.28;;;4.97;;
47625;SDS011;33342;45.574;9.252;2022-07-22T12:52:55;11.57;;;5.03;;
47625;SDS011;33342;45.574;9.252;2022-07-22T12:55:54;9.13;;;4.85;;
47625;SDS011;33342;45.574;9.252;2022-07-22T12:58:24;11.50;;;5.22;;
47625;SDS011;33342;45.574;9.252;2022-07-22T13:00:55;10.57;;;5.22;;
47625;SDS011;33342;45.574;9.252;2022-07-22T13:03:26;8.00;;;4.47;;
47625;SDS011;33342;45.574;9.252;2022-07-22T13:05:55;8.68;;;5.00;;
47625;SDS011;33342;45.574;9.252;2022-07-22T13:08:24;8.18;;;4.60;;
47625;SDS011;33342;45.574;9.252;2022-07-22T13:11:07;8.32;;;4.72;;
47625;SDS011;33342;45.574;9.252;2022-07-22T13:13:34;11.10;;;5.22;;
47625;SDS011;33342;45.574;9.252;2022-07-22T13:16:01;9.35;;;5.38;;
47625;SDS011;33342;45.574;9.252;2022-07-22T13:18:28;8.48;;;5.00;;
47625;SDS011;33342;45.574;9.252;2022-07-22T13:20:55;8.30;;;5.32;;
47625;SDS011;33342;45.574;9.252;2022-07-22T13:23:22;8.52;;;5.20;;
47625;SDS011;33342;45.574;9.252;2022-07-22T13:25:51;11.27;;;4.93;;
47625;SDS011;33342;45.574;9.252;2022-07-22T13:28:22;8.60;;;5.10;;
47625;SDS011;33342;45.574;9.252;2022-07-22T13:30:49;7.50;;;5.13;;
47625;SDS011;33342;45.574;9.252;2022-07-22T13:33:16;9.07;;;5.18;;
47625;SDS011;33342;45.574;9.252;2022-07-22T13:35:45;8.45;;;5.28;;
47625;SDS011;33342;45.574;9.252;2022-07-22T13:38:12;11.07;;;4.93;;
47625;SDS011;33342;45.574;9.252;2022-07-22T13:40:44;13.43;;;5.35;;
47625;SDS011;33342;45.574;9.252;2022-07-22T13:43:22;9.13;;;4.93;;
47625;SDS011;33342;45.574;9.252;2022-07-22T13:45:51;9.90;;;5.13;;
47625;SDS011;33342;45.574;9.252;2022-07-22T13:48:19;8.25;;;5.35;;
47625;SDS011;33342;45.574;9.252;2022-07-22T13:50:47;10.15;;;4.90;;
47625;SDS011;33342;45.574;9.252;2022-07-22T13:53:15;8.60;;;5.55;;
47625;SDS011;33342;45.574;9.252;2022-07-22T13:55:42;7.13;;;4.70;;
47625;SDS011;33342;45.574;9.252;2022-07-22T13:58:09;10.02;;;5.00;;
47625;SDS011;33342;45.574;9.252;2022-07-22T14:00:36;9.80;;;5.20;;
47625;SDS011;33342;45.574;9.252;2022-07-22T14:03:04;7.40;;;5.15;;
47625;SDS011;33342;45.574;9.252;2022-07-22T14:05:32;8.07;;;4.80;;
47625;SDS011;33342;45.574;9.252;2022-07-22T14:07:59;7.82;;;5.28;;
47625;SDS011;33342;45.574;9.252;2022-07-22T14:10:26;8.85;;;5.38;;
47625;SDS011;33342;45.574;9.252;2022-07-22T14:12:53;12.65;;;5.40;;
47625;SDS011;33342;45.574;9.252;2022-07-22T14:15:21;10.70;;;5.22;;
47625;SDS011;33342;45.574;9.252;2022-07-22T14:17:50;10.02;;;5.18;;
47625;SDS011;33342;45.574;9.252;2022-07-22T14:20:18;8.52;;;4.82;;
47625;SDS011;33342;45.574;9.252;2022-07-22T14:22:45;8.68;;;4.93;;
47625;SDS011;33342;45.574;9.252;2022-07-22T14:25:12;12.38;;;5.38;;
47625;SDS011;33342;45.574;9.252;2022-07-22T14:27:39;7.97;;;4.80;;
47625;SDS011;33342;45.574;9.252;2022-07-22T14:30:06;7.45;;;4.60;;
47625;SDS011;33342;45.574;9.252;2022-07-22T14:32:33;9.77;;;4.82;;
47625;SDS011;33342;45.574;9.252;2022-07-22T14:35:01;14.88;;;5.22;;
47625;SDS011;33342;45.574;9.252;2022-07-22T14:37:28;10.95;;;5.05;;
47625;SDS011;33342;45.574;9.252;2022-07-22T14:39:55;8.80;;;5.07;;
47625;SDS011;33342;45.574;9.252;2022-07-22T14:42:22;8.10;;;4.97;;
47625;SDS011;33342;45.574;9.252;2022-07-22T14:44:49;10.00;;;5.72;;
47625;SDS011;33342;45.574;9.252;2022-07-22T14:47:17;8.55;;;4.97;;
47625;SDS011;33342;45.574;9.252;2022-07-22T14:49:44;10.50;;;5.63;;
47625;SDS011;33342;45.574;9.252;2022-07-22T14:52:14;6.78;;;4.43;;
47625;SDS011;33342;45.574;9.252;2022-07-22T14:54:41;9.98;;;4.75;;
47625;SDS011;33342;45.574;9.252;2022-07-22T14:57:09;9.45;;;5.22;;
47625;SDS011;33342;45.574;9.252;2022-07-22T14:59:36;11.20;;;4.88;;
47625;SDS011;33342;45.574;9.252;2022-07-22T15:02:03;11.27;;;5.50;;
47625;SDS011;33342;45.574;9.252;2022-07-22T15:04:30;7.95;;;5.03;;
47625;SDS011;33342;45.574;9.252;2022-07-22T15:07:00;8.55;;;5.10;;
47625;SDS011;33342;45.574;9.252;2022-07-22T15:09:28;10.23;;;5.53;;
47625;SDS011;33342;45.574;9.252;2022-07-22T15:11:56;7.03;;;4.85;;
47625;SDS011;33342;45.574;9.252;2022-07-22T15:14:23;9.35;;;5.50;;
47625;SDS011;33342;45.574;9.252;2022-07-22T15:16:50;9.85;;;5.40;;
47625;SDS011;33342;45.574;9.252;2022-07-22T15:19:18;10.98;;;5.28;;
47625;SDS011;33342;45.574;9.252;2022-07-22T15:21:52;12.98;;;4.63;;
47625;SDS011;33342;45.574;9.252;2022-07-22T15:24:22;7.28;;;4.90;;
47625;SDS011;33342;45.574;9.252;2022-07-22T15:26:49;10.15;;;5.32;;
47625;SDS011;33342;45.574;9.252;2022-07-22T15:29:17;9.80;;;4.50;;
47625;SDS011;33342;45.574;9.252;2022-07-22T15:31:44;6.50;;;4.60;;
47625;SDS011;33342;45.574;9.252;2022-07-22T15:34:11;8.98;;;5.20;;
47625;SDS011;33342;45.574;9.252;2022-07-22T15:36:39;9.75;;;5.13;;